sensor_id;sensor_type;location;lat;lon;timestamp;pressure;altitude;pressure_sealevel;temperature
58307;BMP280;44116;50.884;4.768;2023-03-11T00:01:16;100310.0;;;-0.0
58307;BMP280;44116;50.884;4.768;2023-03-11T00:03:16;100320.0;;;-0.1
58307;BMP280;44116;50.884;4.768;2023-03-11T00:05:15;100320.0;;;-0.1
58307;BMP280;44116;50.884;4.768;2023-03-11T00:07:14;100320.0;;;-0.2
58307;BMP280;44116;50.884;4.768;2023-03-11T00:09:13;100320.0;;;-0.2
58307;BMP280;44116;50.884;4.768;2023-03-11T00:11:13;100320.0;;;-0.2
58307;BMP280;44116;50.884;4.768;2023-03-11T00:13:14;100320.0;;;-0.4
58307;BMP280;44116;50.884;4.768;2023-03-11T00:15:12;100320.0;;;-0.4
58307;BMP280;44116;50.884;4.768;2023-03-11T00:17:12;100330.0;;;-0.4
58307;BMP280;44116;50.884;4.768;2023-03-11T00:19:11;100320.0;;;-0.4
58307;BMP280;44116;50.884;4.768;2023-03-11T00:21:13;100330.0;;;-0.4
58307;BMP280;44116;50.884;4.768;2023-03-11T00:23:11;100340.0;;;-0.5
58307;BMP280;44116;50.884;4.768;2023-03-11T00:25:10;100340.0;;;-0.4
58307;BMP280;44116;50.884;4.768;2023-03-11T00:27:09;100340.0;;;-0.6
58307;BMP280;44116;50.884;4.768;2023-03-11T00:31:09;100350.0;;;-0.4
58307;BMP280;44116;50.884;4.768;2023-03-11T00:33:08;100340.0;;;-0.6
58307;BMP280;44116;50.884;4.768;2023-03-11T00:35:09;100340.0;;;-0.5
58307;BMP280;44116;50.884;4.768;2023-03-11T00:37:07;100350.0;;;-0.4
58307;BMP280;44116;50.884;4.768;2023-03-11T00:39:06;100350.0;;;-0.5
58307;BMP280;44116;50.884;4.768;2023-03-11T00:41:06;100350.0;;;-0.5
58307;BMP280;44116;50.884;4.768;2023-03-11T00:43:05;100360.0;;;-0.4
58307;BMP280;44116;50.884;4.768;2023-03-11T00:45:05;100370.0;;;-0.4
58307;BMP280;44116;50.884;4.768;2023-03-11T00:47:04;100370.0;;;-0.4
58307;BMP280;44116;50.884;4.768;2023-03-11T00:49:04;100370.0;;;-0.4
58307;BMP280;44116;50.884;4.768;2023-03-11T00:51:05;100370.0;;;-0.5
58307;BMP280;44116;50.884;4.768;2023-03-11T00:53:03;100370.0;;;-0.4
58307;BMP280;44116;50.884;4.768;2023-03-11T00:55:03;100360.0;;;-0.4
58307;BMP280;44116;50.884;4.768;2023-03-11T00:57:02;100360.0;;;-0.3
58307;BMP280;44116;50.884;4.768;2023-03-11T00:59:01;100360.0;;;-0.3
58307;BMP280;44116;50.884;4.768;2023-03-11T01:03:01;100360.0;;;-0.3
58307;BMP280;44116;50.884;4.768;2023-03-11T01:05:00;100370.0;;;-0.3
58307;BMP280;44116;50.884;4.768;2023-03-11T01:07:00;100370.0;;;-0.2
58307;BMP280;44116;50.884;4.768;2023-03-11T01:08:59;100370.0;;;-0.3
58307;BMP280;44116;50.884;4.768;2023-03-11T01:10:59;100370.0;;;-0.2
58307;BMP280;44116;50.884;4.768;2023-03-11T01:12:58;100370.0;;;-0.2
58307;BMP280;44116;50.884;4.768;2023-03-11T01:14:58;100370.0;;;-0.3
58307;BMP280;44116;50.884;4.768;2023-03-11T01:16:57;100370.0;;;-0.5
58307;BMP280;44116;50.884;4.768;2023-03-11T01:18:57;100370.0;;;-0.6
58307;BMP280;44116;50.884;4.768;2023-03-11T01:20:56;100370.0;;;-0.6
58307;BMP280;44116;50.884;4.768;2023-03-11T01:22:56;100370.0;;;-0.6
58307;BMP280;44116;50.884;4.768;2023-03-11T01:24:55;100370.0;;;-0.6
58307;BMP280;44116;50.884;4.768;2023-03-11T01:26:55;100370.0;;;-0.6
58307;BMP280;44116;50.884;4.768;2023-03-11T01:28:54;100370.0;;;-0.6
58307;BMP280;44116;50.884;4.768;2023-03-11T01:30:54;100370.0;;;-0.6
58307;BMP280;44116;50.884;4.768;2023-03-11T01:32:54;100370.0;;;-0.6
58307;BMP280;44116;50.884;4.768;2023-03-11T01:34:53;100370.0;;;-0.7
58307;BMP280;44116;50.884;4.768;2023-03-11T01:38:52;100370.0;;;-0.7
58307;BMP280;44116;50.884;4.768;2023-03-11T01:40:52;100380.0;;;-0.8
58307;BMP280;44116;50.884;4.768;2023-03-11T01:42:51;100370.0;;;-0.8
58307;BMP280;44116;50.884;4.768;2023-03-11T01:44:51;100360.0;;;-0.8
58307;BMP280;44116;50.884;4.768;2023-03-11T01:48:50;100380.0;;;-0.9
58307;BMP280;44116;50.884;4.768;2023-03-11T01:50:49;100380.0;;;-0.9
58307;BMP280;44116;50.884;4.768;2023-03-11T01:54:49;100390.0;;;-0.7
58307;BMP280;44116;50.884;4.768;2023-03-11T01:56:48;100390.0;;;-0.8
58307;BMP280;44116;50.884;4.768;2023-03-11T01:58:48;100390.0;;;-0.7
58307;BMP280;44116;50.884;4.768;2023-03-11T02:00:47;100390.0;;;-0.7
58307;BMP280;44116;50.884;4.768;2023-03-11T02:02:47;100390.0;;;-0.8
58307;BMP280;44116;50.884;4.768;2023-03-11T02:04:46;100390.0;;;-0.7
58307;BMP280;44116;50.884;4.768;2023-03-11T02:06:46;100400.0;;;-0.7
58307;BMP280;44116;50.884;4.768;2023-03-11T02:08:45;100390.0;;;-0.6
58307;BMP280;44116;50.884;4.768;2023-03-11T02:10:45;100390.0;;;-0.6
58307;BMP280;44116;50.884;4.768;2023-03-11T02:12:44;100390.0;;;-0.6
58307;BMP280;44116;50.884;4.768;2023-03-11T02:14:44;100400.0;;;-0.4
58307;BMP280;44116;50.884;4.768;2023-03-11T02:16:43;100400.0;;;-0.4
58307;BMP280;44116;50.884;4.768;2023-03-11T02:18:43;100400.0;;;-0.5
58307;BMP280;44116;50.884;4.768;2023-03-11T02:20:44;100400.0;;;-0.5
58307;BMP280;44116;50.884;4.768;2023-03-11T02:22:42;100400.0;;;-0.4
58307;BMP280;44116;50.884;4.768;2023-03-11T02:24:43;100390.0;;;-0.4
58307;BMP280;44116;50.884;4.768;2023-03-11T02:28:41;100390.0;;;-0.5
58307;BMP280;44116;50.884;4.768;2023-03-11T02:30:41;100380.0;;;-0.4
58307;BMP280;44116;50.884;4.768;2023-03-11T02:32:39;100380.0;;;-0.3
58307;BMP280;44116;50.884;4.768;2023-03-11T02:34:39;100380.0;;;-0.3
58307;BMP280;44116;50.884;4.768;2023-03-11T02:36:39;100370.0;;;-0.4
58307;BMP280;44116;50.884;4.768;2023-03-11T02:38:38;100370.0;;;-0.3
58307;BMP280;44116;50.884;4.768;2023-03-11T02:40:40;100370.0;;;-0.2
58307;BMP280;44116;50.884;4.768;2023-03-11T02:42:37;100370.0;;;-0.3
58307;BMP280;44116;50.884;4.768;2023-03-11T02:44:36;100370.0;;;-0.3
58307;BMP280;44116;50.884;4.768;2023-03-11T02:46:36;100380.0;;;-0.3
58307;BMP280;44116;50.884;4.768;2023-03-11T02:48:35;100380.0;;;-0.3
58307;BMP280;44116;50.884;4.768;2023-03-11T02:50:35;100380.0;;;-0.4
58307;BMP280;44116;50.884;4.768;2023-03-11T02:52:35;100380.0;;;-0.3
58307;BMP280;44116;50.884;4.768;2023-03-11T02:56:33;100380.0;;;-0.4
58307;BMP280;44116;50.884;4.768;2023-03-11T03:00:32;100380.0;;;-0.4
58307;BMP280;44116;50.884;4.768;2023-03-11T03:04:32;100400.0;;;-0.4
58307;BMP280;44116;50.884;4.768;2023-03-11T03:08:31;100410.0;;;-0.6
58307;BMP280;44116;50.884;4.768;2023-03-11T03:14:29;100400.0;;;-0.4
58307;BMP280;44116;50.884;4.768;2023-03-11T03:16:29;100400.0;;;-0.5
58307;BMP280;44116;50.884;4.768;2023-03-11T03:18:28;100400.0;;;-0.4
58307;BMP280;44116;50.884;4.768;2023-03-11T03:22:27;100410.0;;;-0.3
58307;BMP280;44116;50.884;4.768;2023-03-11T03:24:27;100410.0;;;-0.4
58307;BMP280;44116;50.884;4.768;2023-03-11T03:26:26;100410.0;;;-0.5
58307;BMP280;44116;50.884;4.768;2023-03-11T03:34:24;100400.0;;;-0.6
58307;BMP280;44116;50.884;4.768;2023-03-11T03:38:23;100400.0;;;-0.4
58307;BMP280;44116;50.884;4.768;2023-03-11T03:40:23;100400.0;;;-0.5
58307;BMP280;44116;50.884;4.768;2023-03-11T03:42:23;100400.0;;;-0.5
58307;BMP280;44116;50.884;4.768;2023-03-11T03:44:22;100400.0;;;-0.7
58307;BMP280;44116;50.884;4.768;2023-03-11T03:46:22;100410.0;;;-0.7
58307;BMP280;44116;50.884;4.768;2023-03-11T03:48:21;100410.0;;;-0.7
58307;BMP280;44116;50.884;4.768;2023-03-11T03:52:20;100410.0;;;-0.9
58307;BMP280;44116;50.884;4.768;2023-03-11T03:54:20;100410.0;;;-0.8
58307;BMP280;44116;50.884;4.768;2023-03-11T03:56:19;100410.0;;;-0.8
58307;BMP280;44116;50.884;4.768;2023-03-11T03:58:19;100410.0;;;-0.9
58307;BMP280;44116;50.884;4.768;2023-03-11T04:02:18;100410.0;;;-0.8
58307;BMP280;44116;50.884;4.768;2023-03-11T04:04:17;100410.0;;;-1.0
58307;BMP280;44116;50.884;4.768;2023-03-11T04:06:18;100420.0;;;-1.0
58307;BMP280;44116;50.884;4.768;2023-03-11T04:08:16;100410.0;;;-1.1
58307;BMP280;44116;50.884;4.768;2023-03-11T04:10:16;100410.0;;;-0.9
58307;BMP280;44116;50.884;4.768;2023-03-11T04:12:15;100410.0;;;-1.1
58307;BMP280;44116;50.884;4.768;2023-03-11T04:14:15;100410.0;;;-1.1
58307;BMP280;44116;50.884;4.768;2023-03-11T04:18:14;100420.0;;;-1.1
58307;BMP280;44116;50.884;4.768;2023-03-11T04:20:13;100420.0;;;-1.0
58307;BMP280;44116;50.884;4.768;2023-03-11T04:22:13;100420.0;;;-1.1
58307;BMP280;44116;50.884;4.768;2023-03-11T04:24:12;100420.0;;;-1.1
58307;BMP280;44116;50.884;4.768;2023-03-11T04:26:12;100420.0;;;-1.1
58307;BMP280;44116;50.884;4.768;2023-03-11T04:28:12;100430.0;;;-1.2
58307;BMP280;44116;50.884;4.768;2023-03-11T04:32:11;100430.0;;;-1.3
58307;BMP280;44116;50.884;4.768;2023-03-11T04:34:10;100440.0;;;-1.2
58307;BMP280;44116;50.884;4.768;2023-03-11T04:36:11;100440.0;;;-1.2
58307;BMP280;44116;50.884;4.768;2023-03-11T04:38:09;100440.0;;;-1.3
58307;BMP280;44116;50.884;4.768;2023-03-11T04:40:09;100440.0;;;-1.2
58307;BMP280;44116;50.884;4.768;2023-03-11T04:42:08;100450.0;;;-1.3
58307;BMP280;44116;50.884;4.768;2023-03-11T04:44:08;100440.0;;;-1.3
58307;BMP280;44116;50.884;4.768;2023-03-11T04:46:07;100450.0;;;-1.4
58307;BMP280;44116;50.884;4.768;2023-03-11T04:48:07;100450.0;;;-1.4
58307;BMP280;44116;50.884;4.768;2023-03-11T04:52:06;100440.0;;;-1.5
58307;BMP280;44116;50.884;4.768;2023-03-11T04:54:05;100450.0;;;-1.4
58307;BMP280;44116;50.884;4.768;2023-03-11T04:56:05;100450.0;;;-1.4
58307;BMP280;44116;50.884;4.768;2023-03-11T04:58:04;100450.0;;;-1.4
58307;BMP280;44116;50.884;4.768;2023-03-11T05:00:04;100450.0;;;-1.4
58307;BMP280;44116;50.884;4.768;2023-03-11T05:02:03;100460.0;;;-1.4
58307;BMP280;44116;50.884;4.768;2023-03-11T05:04:03;100460.0;;;-1.3
58307;BMP280;44116;50.884;4.768;2023-03-11T05:06:02;100460.0;;;-1.4
58307;BMP280;44116;50.884;4.768;2023-03-11T05:08:02;100460.0;;;-1.6
58307;BMP280;44116;50.884;4.768;2023-03-11T05:10:01;100460.0;;;-1.6
58307;BMP280;44116;50.884;4.768;2023-03-11T05:12:01;100460.0;;;-1.8
58307;BMP280;44116;50.884;4.768;2023-03-11T05:14:00;100460.0;;;-1.9
58307;BMP280;44116;50.884;4.768;2023-03-11T05:17:59;100460.0;;;-1.7
58307;BMP280;44116;50.884;4.768;2023-03-11T05:19:59;100460.0;;;-1.7
58307;BMP280;44116;50.884;4.768;2023-03-11T05:21:59;100460.0;;;-1.6
58307;BMP280;44116;50.884;4.768;2023-03-11T05:23:58;100460.0;;;-1.7
58307;BMP280;44116;50.884;4.768;2023-03-11T05:25:57;100460.0;;;-1.7
58307;BMP280;44116;50.884;4.768;2023-03-11T05:27:57;100460.0;;;-1.7
58307;BMP280;44116;50.884;4.768;2023-03-11T05:29:56;100460.0;;;-1.8
58307;BMP280;44116;50.884;4.768;2023-03-11T05:31:56;100460.0;;;-1.9
58307;BMP280;44116;50.884;4.768;2023-03-11T05:33:55;100460.0;;;-1.8
58307;BMP280;44116;50.884;4.768;2023-03-11T05:35:55;100460.0;;;-1.8
58307;BMP280;44116;50.884;4.768;2023-03-11T05:37:54;100460.0;;;-1.9
58307;BMP280;44116;50.884;4.768;2023-03-11T05:39:54;100460.0;;;-2.0
58307;BMP280;44116;50.884;4.768;2023-03-11T05:41:53;100470.0;;;-2.1
58307;BMP280;44116;50.884;4.768;2023-03-11T05:43:53;100470.0;;;-2.1
58307;BMP280;44116;50.884;4.768;2023-03-11T05:45:52;100470.0;;;-2.1
58307;BMP280;44116;50.884;4.768;2023-03-11T05:47:52;100480.0;;;-1.9
58307;BMP280;44116;50.884;4.768;2023-03-11T05:49:51;100480.0;;;-2.1
58307;BMP280;44116;50.884;4.768;2023-03-11T05:51:51;100480.0;;;-2.0
58307;BMP280;44116;50.884;4.768;2023-03-11T05:53:50;100480.0;;;-2.0
58307;BMP280;44116;50.884;4.768;2023-03-11T05:55:54;100480.0;;;-2.0
58307;BMP280;44116;50.884;4.768;2023-03-11T05:57:50;100490.0;;;-1.9
58307;BMP280;44116;50.884;4.768;2023-03-11T05:59:49;100490.0;;;-2.1
58307;BMP280;44116;50.884;4.768;2023-03-11T06:01:48;100490.0;;;-2.1
58307;BMP280;44116;50.884;4.768;2023-03-11T06:03:48;100490.0;;;-2.0
58307;BMP280;44116;50.884;4.768;2023-03-11T06:05:48;100500.0;;;-1.9
58307;BMP280;44116;50.884;4.768;2023-03-11T06:07:47;100500.0;;;-2.0
58307;BMP280;44116;50.884;4.768;2023-03-11T06:11:46;100510.0;;;-2.1
58307;BMP280;44116;50.884;4.768;2023-03-11T06:13:45;100520.0;;;-2.2
58307;BMP280;44116;50.884;4.768;2023-03-11T06:15:45;100520.0;;;-2.2
58307;BMP280;44116;50.884;4.768;2023-03-11T06:17:44;100520.0;;;-2.2
58307;BMP280;44116;50.884;4.768;2023-03-11T06:19:44;100520.0;;;-2.2
58307;BMP280;44116;50.884;4.768;2023-03-11T06:21:43;100530.0;;;-2.0
58307;BMP280;44116;50.884;4.768;2023-03-11T06:23:44;100530.0;;;-1.9
58307;BMP280;44116;50.884;4.768;2023-03-11T06:25:42;100530.0;;;-1.9
58307;BMP280;44116;50.884;4.768;2023-03-11T06:27:42;100530.0;;;-2.1
58307;BMP280;44116;50.884;4.768;2023-03-11T06:29:41;100540.0;;;-2.0
58307;BMP280;44116;50.884;4.768;2023-03-11T06:33:40;100540.0;;;-2.2
58307;BMP280;44116;50.884;4.768;2023-03-11T06:35:40;100550.0;;;-2.2
58307;BMP280;44116;50.884;4.768;2023-03-11T06:37:39;100550.0;;;-2.1
58307;BMP280;44116;50.884;4.768;2023-03-11T06:39:39;100560.0;;;-2.0
58307;BMP280;44116;50.884;4.768;2023-03-11T06:41:38;100560.0;;;-2.1
58307;BMP280;44116;50.884;4.768;2023-03-11T06:43:38;100560.0;;;-2.0
58307;BMP280;44116;50.884;4.768;2023-03-11T06:45:37;100570.0;;;-2.0
58307;BMP280;44116;50.884;4.768;2023-03-11T06:47:37;100570.0;;;-2.0
58307;BMP280;44116;50.884;4.768;2023-03-11T06:49:36;100570.0;;;-2.0
58307;BMP280;44116;50.884;4.768;2023-03-11T06:51:36;100570.0;;;-2.0
58307;BMP280;44116;50.884;4.768;2023-03-11T06:53:35;100570.0;;;-2.0
58307;BMP280;44116;50.884;4.768;2023-03-11T06:55:35;100560.0;;;-2.0
58307;BMP280;44116;50.884;4.768;2023-03-11T06:57:34;100570.0;;;-1.9
58307;BMP280;44116;50.884;4.768;2023-03-11T06:59:34;100570.0;;;-1.9
58307;BMP280;44116;50.884;4.768;2023-03-11T07:01:33;100570.0;;;-2.0
58307;BMP280;44116;50.884;4.768;2023-03-11T07:03:33;100580.0;;;-2.0
58307;BMP280;44116;50.884;4.768;2023-03-11T07:07:32;100590.0;;;-1.9
58307;BMP280;44116;50.884;4.768;2023-03-11T07:11:31;100590.0;;;-1.8
58307;BMP280;44116;50.884;4.768;2023-03-11T07:13:30;100590.0;;;-1.7
58307;BMP280;44116;50.884;4.768;2023-03-11T07:15:30;100590.0;;;-1.6
58307;BMP280;44116;50.884;4.768;2023-03-11T07:17:29;100590.0;;;-1.7
58307;BMP280;44116;50.884;4.768;2023-03-11T07:19:29;100600.0;;;-1.6
58307;BMP280;44116;50.884;4.768;2023-03-11T07:21:29;100600.0;;;-1.6
58307;BMP280;44116;50.884;4.768;2023-03-11T07:23:28;100600.0;;;-1.6
58307;BMP280;44116;50.884;4.768;2023-03-11T07:25:27;100600.0;;;-1.6
58307;BMP280;44116;50.884;4.768;2023-03-11T07:27:27;100600.0;;;-1.6
58307;BMP280;44116;50.884;4.768;2023-03-11T07:29:26;100610.0;;;-1.5
58307;BMP280;44116;50.884;4.768;2023-03-11T07:31:27;100600.0;;;-1.5
58307;BMP280;44116;50.884;4.768;2023-03-11T07:33:25;100600.0;;;-1.5
58307;BMP280;44116;50.884;4.768;2023-03-11T07:35:25;100610.0;;;-1.4
58307;BMP280;44116;50.884;4.768;2023-03-11T07:37:24;100610.0;;;-1.4
58307;BMP280;44116;50.884;4.768;2023-03-11T07:39:23;100610.0;;;-1.4
58307;BMP280;44116;50.884;4.768;2023-03-11T07:41:23;100610.0;;;-1.4
58307;BMP280;44116;50.884;4.768;2023-03-11T07:43:22;100620.0;;;-1.4
58307;BMP280;44116;50.884;4.768;2023-03-11T07:45:22;100620.0;;;-1.3
58307;BMP280;44116;50.884;4.768;2023-03-11T07:47:22;100630.0;;;-1.2
58307;BMP280;44116;50.884;4.768;2023-03-11T07:49:21;100620.0;;;-1.3
58307;BMP280;44116;50.884;4.768;2023-03-11T07:51:21;100630.0;;;-1.2
58307;BMP280;44116;50.884;4.768;2023-03-11T07:53:20;100630.0;;;-1.1
58307;BMP280;44116;50.884;4.768;2023-03-11T07:55:19;100630.0;;;-1.2
58307;BMP280;44116;50.884;4.768;2023-03-11T07:57:19;100630.0;;;-1.1
58307;BMP280;44116;50.884;4.768;2023-03-11T08:01:19;100630.0;;;-1.0
58307;BMP280;44116;50.884;4.768;2023-03-11T08:03:17;100630.0;;;-0.9
58307;BMP280;44116;50.884;4.768;2023-03-11T08:05:17;100640.0;;;-0.8
58307;BMP280;44116;50.884;4.768;2023-03-11T08:07:17;100630.0;;;-0.7
58307;BMP280;44116;50.884;4.768;2023-03-11T08:09:16;100640.0;;;-0.7
58307;BMP280;44116;50.884;4.768;2023-03-11T08:11:16;100640.0;;;-0.7
58307;BMP280;44116;50.884;4.768;2023-03-11T08:13:15;100640.0;;;-0.7
58307;BMP280;44116;50.884;4.768;2023-03-11T08:15:14;100640.0;;;-0.7
58307;BMP280;44116;50.884;4.768;2023-03-11T08:17:14;100640.0;;;-0.6
58307;BMP280;44116;50.884;4.768;2023-03-11T08:19:13;100640.0;;;-0.6
58307;BMP280;44116;50.884;4.768;2023-03-11T08:23:12;100630.0;;;-0.4
58307;BMP280;44116;50.884;4.768;2023-03-11T08:25:12;100640.0;;;-0.5
58307;BMP280;44116;50.884;4.768;2023-03-11T08:27:12;100650.0;;;-0.5
58307;BMP280;44116;50.884;4.768;2023-03-11T08:29:11;100650.0;;;-0.3
58307;BMP280;44116;50.884;4.768;2023-03-11T08:31:11;100650.0;;;-0.2
58307;BMP280;44116;50.884;4.768;2023-03-11T08:33:10;100650.0;;;-0.0
58307;BMP280;44116;50.884;4.768;2023-03-11T08:35:10;100650.0;;;0.1
58307;BMP280;44116;50.884;4.768;2023-03-11T08:37:09;100660.0;;;0.2
58307;BMP280;44116;50.884;4.768;2023-03-11T08:39:09;100660.0;;;0.2
58307;BMP280;44116;50.884;4.768;2023-03-11T08:41:08;100660.0;;;0.3
58307;BMP280;44116;50.884;4.768;2023-03-11T08:47:07;100670.0;;;0.2
58307;BMP280;44116;50.884;4.768;2023-03-11T08:49:06;100670.0;;;0.2
58307;BMP280;44116;50.884;4.768;2023-03-11T08:51:07;100670.0;;;0.3
58307;BMP280;44116;50.884;4.768;2023-03-11T08:55:05;100670.0;;;0.5
58307;BMP280;44116;50.884;4.768;2023-03-11T08:57:04;100670.0;;;0.6
58307;BMP280;44116;50.884;4.768;2023-03-11T08:59:04;100680.0;;;0.8
58307;BMP280;44116;50.884;4.768;2023-03-11T09:01:04;100680.0;;;0.8
58307;BMP280;44116;50.884;4.768;2023-03-11T09:03:03;100690.0;;;0.9
58307;BMP280;44116;50.884;4.768;2023-03-11T09:05:02;100680.0;;;0.9
58307;BMP280;44116;50.884;4.768;2023-03-11T09:07:02;100680.0;;;0.9
58307;BMP280;44116;50.884;4.768;2023-03-11T09:13:01;100680.0;;;1.1
58307;BMP280;44116;50.884;4.768;2023-03-11T09:15:00;100670.0;;;1.2
58307;BMP280;44116;50.884;4.768;2023-03-11T09:17:00;100670.0;;;1.2
58307;BMP280;44116;50.884;4.768;2023-03-11T09:18:59;100670.0;;;1.3
